Time;durP1;ratioP1;P1;durP2;ratioP2;P2;SDS_P1;SDS_P2;PMS_P1;PMS_P2;Temp;Humidity;BMP_temperature;BMP_pressure;BME280_temperature;BME280_humidity;BME280_pressure;Samples;Min_cycle;Max_cycle;Signal;HPM_P1;HPM_P2
2021/03/23 00:00:22;;;;;;;7.17;5.57;;;;;;;-1.06;95.04;98727.59;5002074;28;20705;-69
2021/03/23 00:02:52;;;;;;;5.83;5.33;;;;;;;-1.17;94.97;98736.75;5007074;28;20211;-69
2021/03/23 00:05:20;;;;;;;10.93;6.20;;;;;;;-1.14;94.92;98737.50;5001347;28;20740;-69
2021/03/23 00:07:47;;;;;;;8.90;5.83;;;;;;;-1.22;96.27;98735.25;5000940;28;20205;-69
2021/03/23 00:10:15;;;;;;;6.77;5.50;;;;;;;-1.32;96.45;98732.25;5006043;28;20209;-69
2021/03/23 00:12:43;;;;;;;10.17;5.73;;;;;;;-1.22;97.57;98736.13;5003985;28;20236;-69
2021/03/23 00:15:11;;;;;;;8.43;5.80;;;;;;;-1.29;97.07;98733.88;5004012;28;20327;-69
2021/03/23 00:17:39;;;;;;;7.80;6.70;;;;;;;-1.23;97.02;98742.25;5006891;28;20209;-68
2021/03/23 00:20:09;;;;;;;6.87;6.17;;;;;;;-1.20;97.32;98739.50;5007893;28;20299;-68
2021/03/23 00:22:37;;;;;;;6.77;5.53;;;;;;;-1.37;96.54;98742.00;5000803;28;20677;-69
2021/03/23 00:25:05;;;;;;;7.90;7.13;;;;;;;-1.50;97.45;98745.19;5001937;28;20613;-69
2021/03/23 00:27:33;;;;;;;6.70;6.00;;;;;;;-1.47;97.88;98747.63;5005591;28;20299;-69
2021/03/23 00:30:01;;;;;;;7.27;6.17;;;;;;;-1.51;98.05;98746.09;5003868;28;20201;-68
2021/03/23 00:32:28;;;;;;;8.47;5.83;;;;;;;-1.57;98.40;98745.50;5003439;28;20300;-68
2021/03/23 00:34:55;;;;;;;7.30;5.30;;;;;;;-1.62;98.62;98743.13;4998518;28;20236;-69
2021/03/23 00:37:23;;;;;;;8.63;7.57;;;;;;;-1.56;98.80;98744.59;5007448;28;20204;-69
2021/03/23 00:39:50;;;;;;;6.40;5.70;;;;;;;-1.42;97.55;98736.19;5002252;28;20204;-68
2021/03/23 00:42:17;;;;;;;7.70;5.80;;;;;;;-1.38;97.44;98742.94;5010000;28;20216;-69
2021/03/23 00:44:44;;;;;;;5.97;5.47;;;;;;;-1.35;97.58;98742.78;5007168;28;20236;-69
2021/03/23 00:47:12;;;;;;;7.13;6.23;;;;;;;-1.25;97.74;98738.00;5009677;28;20986;-68
2021/03/23 00:49:39;;;;;;;8.83;6.10;;;;;;;-1.15;97.05;98741.84;5003677;28;20491;-68
2021/03/23 00:52:07;;;;;;;7.63;5.97;;;;;;;-1.14;95.72;98742.72;5004015;28;20267;-68
2021/03/23 00:54:34;;;;;;;7.43;5.77;;;;;;;-1.15;97.11;98743.63;5003883;28;20345;-69
2021/03/23 00:57:01;;;;;;;8.73;6.00;;;;;;;-1.24;98.05;98737.09;5001597;28;20209;-67
2021/03/23 00:59:28;;;;;;;8.37;5.83;;;;;;;-1.11;98.04;98733.03;5004704;28;20193;-69
2021/03/23 01:01:56;;;;;;;9.70;5.93;;;;;;;-1.15;97.66;98739.25;5007542;28;20299;-68
2021/03/23 01:04:25;;;;;;;6.67;5.97;;;;;;;-1.15;97.90;98730.63;5000803;28;20225;-69
2021/03/23 01:06:52;;;;;;;6.43;5.50;;;;;;;-1.08;98.09;98729.41;4998818;28;20215;-68
2021/03/23 01:09:20;;;;;;;8.00;6.03;;;;;;;-1.17;98.54;98731.53;5001275;28;20549;-69
2021/03/23 01:11:47;;;;;;;6.60;5.77;;;;;;;-1.00;98.04;98729.06;5002542;28;20609;-68
2021/03/23 01:14:14;;;;;;;8.93;5.90;;;;;;;-0.96;96.44;98726.22;5002186;28;20327;-68
2021/03/23 01:16:41;;;;;;;6.87;6.17;;;;;;;-0.92;97.56;98720.00;5008647;28;20825;-68
2021/03/23 01:19:08;;;;;;;6.53;5.93;;;;;;;-0.92;96.87;98727.78;5003553;28;20200;-69
2021/03/23 01:21:36;;;;;;;8.43;5.97;;;;;;;-0.90;96.56;98722.50;5003737;28;20203;-69
2021/03/23 01:24:06;;;;;;;8.63;6.87;;;;;;;-0.73;96.47;98722.53;5001913;28;20811;-69
2021/03/23 01:26:33;;;;;;;7.30;6.53;;;;;;;-0.66;95.26;98724.84;5009608;28;20707;-69
2021/03/23 01:29:00;;;;;;;10.97;6.73;;;;;;;-0.71;95.86;98727.66;5003556;28;20209;-67
2021/03/23 01:31:27;;;;;;;8.10;6.80;;;;;;;-0.67;95.87;98730.97;5002572;28;20293;-69
2021/03/23 01:33:55;;;;;;;9.77;5.90;;;;;;;-0.51;94.66;98725.84;5005478;28;20232;-68
2021/03/23 01:36:23;;;;;;;6.30;5.57;;;;;;;-0.56;95.36;98720.88;5002577;28;20338;-68
2021/03/23 01:38:51;;;;;;;6.90;6.20;;;;;;;-0.51;95.95;98725.84;5002477;28;20811;-69
2021/03/23 01:41:21;;;;;;;6.07;5.47;;;;;;;-0.49;94.88;98729.22;5001938;28;20669;-68
2021/03/23 01:43:51;;;;;;;6.70;5.80;;;;;;;-0.52;95.66;98722.38;5002845;28;20221;-69
2021/03/23 01:46:41;;;;;;;6.30;5.70;;;;;;;-0.60;96.47;98729.75;5007444;28;20238;-69
2021/03/23 01:49:15;;;;;;;8.70;6.37;;;;;;;-0.56;96.37;98725.25;5010186;28;20212;-68
2021/03/23 01:51:50;;;;;;;7.93;6.73;;;;;;;-0.46;96.51;98726.47;5005512;28;20275;-69
2021/03/23 01:54:22;;;;;;;11.47;6.97;;;;;;;-0.57;97.07;98729.59;5000805;28;20559;-68
2021/03/23 01:56:50;;;;;;;6.57;5.97;;;;;;;-0.63;97.19;98728.13;4998674;28;20597;-69
2021/03/23 01:59:19;;;;;;;8.20;6.83;;;;;;;-0.48;96.53;98723.91;5002423;28;20204;-68
2021/03/23 02:01:46;;;;;;;7.03;6.07;;;;;;;-0.39;95.78;98722.63;5002631;28;20212;-68
2021/03/23 02:04:14;;;;;;;6.77;6.03;;;;;;;-0.35;95.88;98718.94;4998335;28;20263;-68
2021/03/23 02:06:51;;;;;;;10.93;5.77;;;;;;;-0.33;95.55;98717.09;4998082;28;20205;-69
2021/03/23 02:09:24;;;;;;;7.27;6.63;;;;;;;-0.35;95.48;98724.16;4998285;28;20215;-68
2021/03/23 02:11:56;;;;;;;7.23;5.53;;;;;;;-0.28;96.10;98726.44;4999173;28;20205;-68
2021/03/23 02:14:27;;;;;;;7.73;6.30;;;;;;;-0.32;96.41;98723.19;4995256;28;20233;-68
2021/03/23 02:16:55;;;;;;;9.37;5.70;;;;;;;-0.23;96.51;98725.31;5002996;28;20220;-70
2021/03/23 02:19:27;;;;;;;6.90;6.20;;;;;;;-0.25;95.82;98724.53;5000421;28;20209;-69
2021/03/23 02:21:55;;;;;;;10.83;6.47;;;;;;;-0.09;95.72;98726.34;4999559;28;20205;-69
2021/03/23 02:24:22;;;;;;;8.57;5.70;;;;;;;-0.21;96.09;98722.59;5005172;28;20256;-67
2021/03/23 02:26:49;;;;;;;9.33;6.73;;;;;;;-0.14;96.38;98718.78;5001614;28;20596;-69
2021/03/23 02:29:18;;;;;;;6.63;5.93;;;;;;;-0.20;96.04;98724.28;5000410;28;20240;-69
2021/03/23 02:31:48;;;;;;;6.60;5.57;;;;;;;-0.14;96.62;98718.78;4999841;28;20238;-68
2021/03/23 02:34:18;;;;;;;7.90;6.10;;;;;;;-0.15;96.03;98719.72;5001997;28;20327;-68
2021/03/23 02:36:46;;;;;;;7.63;6.07;;;;;;;-0.16;96.90;98725.84;5004420;28;20691;-69
2021/03/23 02:39:17;;;;;;;7.07;6.20;;;;;;;-0.21;97.10;98722.59;5002788;28;20716;-68
2021/03/23 02:41:44;;;;;;;11.20;6.23;;;;;;;-0.14;97.18;98716.19;4997419;28;20224;-68
2021/03/23 02:44:11;;;;;;;9.37;6.80;;;;;;;-0.06;95.85;98719.25;4999013;28;20592;-69
2021/03/23 02:46:39;;;;;;;8.00;6.20;;;;;;;-0.07;95.70;98714.09;5006272;28;20766;-69
2021/03/23 02:49:07;;;;;;;7.30;5.93;;;;;;;-0.09;96.63;98714.19;4999268;28;20213;-70
2021/03/23 02:51:34;;;;;;;6.40;5.80;;;;;;;0.01;96.06;98717.16;5008976;28;20205;-69
2021/03/23 02:54:01;;;;;;;7.30;5.97;;;;;;;-0.05;96.06;98715.72;5003176;28;20660;-67
2021/03/23 02:56:29;;;;;;;8.03;6.10;;;;;;;-0.20;96.93;98714.72;5000178;28;20319;-69
2021/03/23 02:58:57;;;;;;;8.10;6.33;;;;;;;-0.28;97.16;98703.84;5006838;28;20315;-69
2021/03/23 03:01:24;;;;;;;7.73;6.50;;;;;;;-0.13;97.67;98709.19;5001311;28;20205;-69
2021/03/23 03:03:52;;;;;;;7.83;7.10;;;;;;;-0.12;97.10;98708.28;5010512;28;20262;-70
2021/03/23 03:06:20;;;;;;;7.87;6.37;;;;;;;-0.12;97.50;98708.28;5003876;28;21907;-70
2021/03/23 03:08:47;;;;;;;6.97;6.30;;;;;;;0.05;96.31;98710.00;5007677;28;20267;-69
2021/03/23 03:11:14;;;;;;;8.23;5.77;;;;;;;-0.04;96.90;98711.31;5006469;28;20213;-69
2021/03/23 03:13:43;;;;;;;7.27;5.90;;;;;;;-0.03;96.38;98707.78;5001309;28;20219;-69
2021/03/23 03:16:10;;;;;;;6.23;5.60;;;;;;;-0.03;97.06;98715.63;5008400;28;20224;-69
2021/03/23 03:18:37;;;;;;;10.60;6.50;;;;;;;0.11;96.18;98712.28;5007260;28;20236;-69
2021/03/23 03:21:05;;;;;;;6.67;5.60;;;;;;;0.10;95.83;98713.22;5008174;28;20284;-69
2021/03/23 03:23:32;;;;;;;7.27;6.37;;;;;;;0.06;96.13;98717.75;5006751;28;20212;-69
2021/03/23 03:26:01;;;;;;;7.80;6.67;;;;;;;-0.09;97.78;98716.78;5007814;28;20206;-67
2021/03/23 03:28:28;;;;;;;7.23;6.37;;;;;;;-0.07;98.10;98716.69;5006524;28;20205;-69
2021/03/23 03:30:57;;;;;;;7.00;6.30;;;;;;;0.21;97.87;98723.09;5009540;28;20204;-69
2021/03/23 03:33:25;;;;;;;8.53;6.50;;;;;;;0.11;97.40;98713.16;5006694;28;20217;-69
2021/03/23 03:35:54;;;;;;;7.00;5.37;;;;;;;0.10;97.80;98713.22;5001482;28;20315;-68
2021/03/23 03:38:25;;;;;;;10.10;6.43;;;;;;;-0.04;98.83;98719.13;4992381;28;20208;-70
2021/03/23 03:40:54;;;;;;;6.73;6.03;;;;;;;-0.04;99.03;98722.59;4996615;28;20206;-69
2021/03/23 03:43:23;;;;;;;9.07;6.57;;;;;;;0.14;98.97;98719.94;5003944;28;20212;-69
2021/03/23 03:45:51;;;;;;;7.97;6.17;;;;;;;0.13;99.11;98713.06;5008825;28;20234;-69
2021/03/23 03:48:19;;;;;;;6.33;5.73;;;;;;;0.14;98.37;98719.94;5005980;28;20323;-70
2021/03/23 03:50:46;;;;;;;6.63;5.73;;;;;;;0.26;98.41;98724.53;5006768;28;20200;-69
2021/03/23 03:53:14;;;;;;;7.73;5.97;;;;;;;0.12;97.79;98724.41;5006799;28;20205;-69
2021/03/23 03:55:43;;;;;;;7.03;5.87;;;;;;;0.14;98.66;98726.03;5000361;28;20232;-67
2021/03/23 03:58:10;;;;;;;7.93;6.03;;;;;;;0.28;97.90;98720.09;4998675;28;20300;-69
2021/03/23 04:00:37;;;;;;;6.73;5.87;;;;;;;0.41;96.91;98725.50;5001425;28;20212;-68
2021/03/23 04:03:07;;;;;;;6.73;5.97;;;;;;;0.20;97.51;98726.63;5002636;28;20203;-68
2021/03/23 04:05:37;;;;;;;12.00;6.67;;;;;;;0.18;99.05;98726.69;5004128;28;20228;-69
2021/03/23 04:08:06;;;;;;;7.93;6.50;;;;;;;0.13;98.93;98724.34;5004398;28;20215;-69
2021/03/23 04:10:33;;;;;;;7.60;6.20;;;;;;;0.14;99.78;98730.38;5004513;28;20763;-69
2021/03/23 04:13:00;;;;;;;7.23;6.20;;;;;;;0.23;99.59;98729.91;5001733;28;20208;-67
2021/03/23 04:15:29;;;;;;;9.10;6.80;;;;;;;0.06;99.28;98725.59;5009049;28;20740;-69
2021/03/23 04:17:56;;;;;;;7.67;6.93;;;;;;;0.11;100.00;98727.94;5004647;28;20523;-69
2021/03/23 04:20:23;;;;;;;7.47;6.10;;;;;;;0.12;100.00;98729.63;5009072;28;20711;-67
2021/03/23 04:22:52;;;;;;;7.20;6.50;;;;;;;0.26;100.00;98727.16;5010778;28;20196;-69
2021/03/23 04:25:22;;;;;;;9.57;6.23;;;;;;;0.27;99.56;98730.59;5007333;28;20307;-69
2021/03/23 04:27:49;;;;;;;6.90;6.20;;;;;;;0.26;99.47;98739.34;5012875;28;20293;-69
2021/03/23 04:30:18;;;;;;;7.83;6.53;;;;;;;0.31;98.89;98739.09;5004065;28;20336;-68
2021/03/23 04:32:46;;;;;;;6.70;5.90;;;;;;;0.26;99.40;98739.34;5014978;28;20210;-69
2021/03/23 04:35:23;;;;;;;9.70;6.27;;;;;;;0.27;99.36;98738.41;5002630;28;20229;-70
2021/03/23 04:37:51;;;;;;;8.17;6.37;;;;;;;0.37;98.85;98738.78;5002145;28;20201;-70
2021/03/23 04:40:19;;;;;;;6.77;6.10;;;;;;;0.38;98.79;98743.06;5007569;28;20288;-68
2021/03/23 04:42:46;;;;;;;9.13;6.23;;;;;;;0.48;98.23;98739.03;5004442;28;20737;-69
2021/03/23 04:45:14;;;;;;;7.43;6.13;;;;;;;0.48;98.20;98738.22;5006173;28;20220;-70
2021/03/23 04:47:41;;;;;;;6.97;6.27;;;;;;;0.44;97.89;98734.91;5000530;28;20197;-69
2021/03/23 04:50:10;;;;;;;7.07;6.30;;;;;;;0.40;98.77;98733.38;5000332;28;20263;-69
2021/03/23 04:52:38;;;;;;;8.33;6.17;;;;;;;0.49;98.27;98732.91;4999529;28;20213;-69
2021/03/23 04:55:07;;;;;;;6.40;5.77;;;;;;;0.48;98.09;98730.38;5001909;28;20224;-68
2021/03/23 04:57:34;;;;;;;8.07;6.27;;;;;;;0.47;98.41;98739.97;5005396;28;20415;-70
2021/03/23 05:00:01;;;;;;;6.53;5.63;;;;;;;0.36;98.72;98737.91;5000493;28;20201;-69
2021/03/23 05:02:28;;;;;;;7.90;6.83;;;;;;;0.30;99.90;98742.63;5008400;28;20211;-70
2021/03/23 05:04:57;;;;;;;9.30;6.10;;;;;;;0.29;100.00;98749.59;5002810;28;20233;-70
2021/03/23 05:07:24;;;;;;;7.07;6.33;;;;;;;0.40;100.00;98742.06;5006707;28;20296;-70
2021/03/23 05:09:51;;;;;;;6.23;5.40;;;;;;;0.43;99.59;98749.72;5001522;28;20200;-70
2021/03/23 05:12:20;;;;;;;7.10;6.30;;;;;;;0.45;99.07;98747.03;5000616;28;20296;-69
2021/03/23 05:14:47;;;;;;;6.60;5.97;;;;;;;0.43;99.52;98746.25;5001442;28;20283;-70
2021/03/23 05:17:15;;;;;;;7.10;6.30;;;;;;;0.49;98.58;98751.16;5002487;28;20255;-69
2021/03/23 05:19:42;;;;;;;7.40;6.50;;;;;;;0.51;98.87;98751.09;5004692;28;20601;-67
2021/03/23 05:22:09;;;;;;;6.80;6.10;;;;;;;0.54;98.38;98750.91;5005621;28;20288;-67
2021/03/23 05:24:36;;;;;;;7.87;6.47;;;;;;;0.50;98.75;98754.63;5004266;28;20315;-66
2021/03/23 05:27:04;;;;;;;6.97;6.27;;;;;;;0.65;98.07;98753.78;5002576;28;20229;-66
2021/03/23 05:29:32;;;;;;;7.93;6.30;;;;;;;0.82;97.14;98759.88;5001246;28;20217;-67
2021/03/23 05:31:59;;;;;;;7.47;6.77;;;;;;;0.92;96.42;98758.44;5004856;28;20721;-67
2021/03/23 05:34:27;;;;;;;6.90;6.10;;;;;;;0.92;95.91;98765.41;5005402;28;20278;-67
2021/03/23 05:36:54;;;;;;;7.60;6.23;;;;;;;0.77;96.37;98759.28;5000498;28;20260;-67
2021/03/23 05:39:21;;;;;;;7.20;6.50;;;;;;;0.66;97.54;98765.91;5006024;28;20201;-67
2021/03/23 05:41:55;;;;;;;6.73;6.10;;;;;;;0.91;96.83;98763.72;5007234;28;20232;-66
2021/03/23 05:44:45;;;;;;;7.47;6.37;;;;;;;0.93;96.55;98772.31;5001052;28;20226;-66
2021/03/23 05:47:12;;;;;;;8.10;6.47;;;;;;;0.82;96.93;98770.31;4993233;28;20296;-65
2021/03/23 05:49:41;;;;;;;8.43;6.63;;;;;;;0.74;98.25;98781.16;5004176;28;20213;-69
2021/03/23 05:52:16;;;;;;;11.53;6.50;;;;;;;0.80;97.71;98777.38;5000615;28;20380;-70
2021/03/23 05:54:57;;;;;;;7.00;6.27;;;;;;;0.80;97.80;98783.44;4999076;28;20290;-69
2021/03/23 05:57:31;;;;;;;11.10;7.13;;;;;;;1.06;100.00;98778.56;4998625;28;20697;-67
2021/03/23 06:00:01;;;;;;;10.73;6.80;;;;;;;1.46;100.00;98779.88;5001009;28;20315;-69
2021/03/23 06:02:37;;;;;;;6.77;6.00;;;;;;;1.37;100.00;98784.72;5004923;28;20561;-69
2021/03/23 06:05:24;;;;;;;8.00;6.27;;;;;;;1.47;98.07;98794.63;5002280;28;20282;-70
2021/03/23 06:08:19;;;;;;;12.33;6.63;;;;;;;1.41;97.36;98793.19;4998670;28;20207;-70
2021/03/23 06:10:46;;;;;;;9.27;5.93;;;;;;;1.49;97.58;98803.22;4998972;28;20547;-70
2021/03/23 06:13:22;;;;;;;9.10;6.87;;;;;;;1.69;98.21;98797.69;5007285;28;20236;-69
2021/03/23 06:16:03;;;;;;;7.07;6.30;;;;;;;1.40;95.74;98807.19;4997869;28;20329;-68
2021/03/23 06:18:35;;;;;;;9.23;6.97;;;;;;;1.32;95.80;98810.22;5000883;28;20213;-69
2021/03/23 06:21:07;;;;;;;7.90;6.23;;;;;;;1.36;94.51;98816.97;5003235;28;20215;-68
2021/03/23 06:23:55;;;;;;;6.50;5.67;;;;;;;1.15;96.09;98814.59;5005494;28;20211;-69
2021/03/23 06:26:28;;;;;;;6.70;6.10;;;;;;;1.26;95.74;98816.63;5004619;28;20304;-69
2021/03/23 06:29:06;;;;;;;7.67;6.30;;;;;;;1.41;95.12;98820.16;4999709;28;20497;-69
2021/03/23 06:31:49;;;;;;;6.37;5.83;;;;;;;1.55;94.83;98818.53;5007848;28;20578;-69
2021/03/23 06:34:19;;;;;;;8.30;6.03;;;;;;;1.54;93.22;98824.69;5009672;28;20330;-68
2021/03/23 06:36:46;;;;;;;6.67;6.00;;;;;;;1.54;94.27;98832.53;5003343;28;20231;-70
2021/03/23 06:39:14;;;;;;;6.97;6.27;;;;;;;1.56;93.48;98821.09;5000157;28;20201;-69
2021/03/23 06:41:52;;;;;;;9.43;6.13;;;;;;;1.63;94.08;98820.72;5003924;28;20245;-67
2021/03/23 06:44:24;;;;;;;7.67;6.90;;;;;;;1.52;94.00;98824.81;5000359;28;20311;-68
2021/03/23 06:46:53;;;;;;;6.73;6.13;;;;;;;1.53;94.42;98817.78;4999761;28;20209;-69
2021/03/23 06:49:32;;;;;;;7.87;6.10;;;;;;;1.54;95.16;98833.38;5001287;28;20769;-67
2021/03/23 06:52:22;;;;;;;7.23;6.60;;;;;;;1.61;94.10;98831.25;5002129;28;20658;-71
2021/03/23 06:55:20;;;;;;;7.70;6.33;;;;;;;1.88;93.37;98828.00;5001692;28;20707;-69
2021/03/23 06:57:48;;;;;;;9.40;7.00;;;;;;;1.93;92.82;98833.81;5000460;28;20216;-70
2021/03/23 07:00:31;;;;;;;9.60;7.50;;;;;;;1.96;92.47;98836.25;5000447;28;20684;-67
2021/03/23 07:03:14;;;;;;;8.10;7.30;;;;;;;2.07;91.97;98837.38;5000814;28;20580;-69
2021/03/23 07:05:43;;;;;;;7.43;6.70;;;;;;;2.21;91.56;98839.19;4999406;28;20245;-69
2021/03/23 07:08:21;;;;;;;9.77;7.10;;;;;;;2.17;92.01;98841.16;5001661;28;20228;-70
2021/03/23 07:11:07;;;;;;;10.10;7.77;;;;;;;2.38;91.11;98840.81;5000812;28;20201;-69
2021/03/23 07:13:38;;;;;;;10.43;7.40;;;;;;;2.33;91.08;98838.50;5001635;28;20201;-70
2021/03/23 07:16:21;;;;;;;7.83;7.13;;;;;;;2.40;91.39;98836.34;5001144;28;20233;-70
2021/03/23 07:18:50;;;;;;;7.67;6.87;;;;;;;2.36;92.17;98840.06;5000761;28;20205;-68
2021/03/23 07:21:41;;;;;;;9.47;7.90;;;;;;;2.39;91.95;98839.88;5002232;28;20994;-70
2021/03/23 07:24:10;;;;;;;8.73;7.17;;;;;;;2.29;92.86;98837.81;4998503;28;20238;-69
2021/03/23 07:26:38;;;;;;;10.90;8.00;;;;;;;2.54;92.28;98841.59;5000300;28;20331;-67
2021/03/23 07:29:24;;;;;;;8.43;7.60;;;;;;;2.58;91.88;98852.72;5002551;28;20674;-69
2021/03/23 07:32:04;;;;;;;8.97;7.10;;;;;;;2.54;93.36;98841.59;5003345;28;20604;-70
2021/03/23 07:34:36;;;;;;;8.23;7.53;;;;;;;2.63;92.32;98853.28;5000715;28;20651;-70
2021/03/23 07:37:08;;;;;;;8.80;8.00;;;;;;;2.72;93.52;98841.41;5004165;28;20239;-67
2021/03/23 07:39:39;;;;;;;10.93;9.83;;;;;;;2.89;92.65;98845.63;5002619;28;20233;-70
2021/03/23 07:42:10;;;;;;;9.50;8.60;;;;;;;2.98;91.67;98845.06;4999983;28;20221;-70
2021/03/23 07:44:40;;;;;;;9.90;7.70;;;;;;;3.17;91.42;98849.16;5004226;28;20221;-70
2021/03/23 07:47:16;;;;;;;9.83;8.27;;;;;;;3.53;88.34;98854.78;4999213;28;20543;-70
2021/03/23 07:49:48;;;;;;;11.03;9.47;;;;;;;3.37;88.51;98854.91;5003458;28;20216;-68
2021/03/23 07:52:21;;;;;;;8.67;7.87;;;;;;;3.31;90.09;98850.91;5006487;28;20303;-69
2021/03/23 07:54:48;;;;;;;8.43;7.70;;;;;;;3.42;89.85;98848.44;5006239;28;20315;-69
2021/03/23 07:57:47;;;;;;;9.97;8.97;;;;;;;3.51;88.76;98856.66;5007101;28;20311;-69
2021/03/23 08:00:51;;;;;;;9.60;8.50;;;;;;;3.70;87.12;98856.31;5001814;28;20211;-68
2021/03/23 08:03:41;;;;;;;8.83;7.93;;;;;;;3.73;87.20;98846.50;4994957;28;20296;-70
2021/03/23 08:06:19;;;;;;;9.53;8.40;;;;;;;3.79;86.95;98854.88;5000794;28;20272;-69
2021/03/23 08:08:58;;;;;;;9.07;8.17;;;;;;;4.06;84.79;98847.00;5003497;28;20215;-67
2021/03/23 08:11:34;;;;;;;8.83;7.93;;;;;;;4.18;84.03;98851.44;5002107;28;20203;-69
2021/03/23 08:14:15;;;;;;;9.03;8.07;;;;;;;4.26;83.40;98848.28;5006880;28;20248;-67
2021/03/23 08:17:00;;;;;;;8.70;7.80;;;;;;;4.27;82.70;98854.38;5002270;28;20235;-70
2021/03/23 08:19:43;;;;;;;9.17;8.20;;;;;;;4.22;81.80;98854.69;5004663;28;20209;-70
2021/03/23 08:22:35;;;;;;;8.73;7.93;;;;;;;4.54;81.83;98850.81;5002773;28;20214;-69
2021/03/23 08:25:06;;;;;;;8.97;8.07;;;;;;;4.42;82.05;98848.09;5006521;28;20228;-68
2021/03/23 08:27:57;;;;;;;14.23;12.73;;;;;;;4.86;77.83;98855.66;5007740;28;20208;-69
2021/03/23 08:30:35;;;;;;;12.27;11.07;;;;;;;4.67;76.58;98858.72;5003719;28;20211;-69
2021/03/23 08:33:13;;;;;;;9.20;8.30;;;;;;;4.43;77.32;98856.81;5002027;28;20228;-70
2021/03/23 08:35:57;;;;;;;8.20;7.40;;;;;;;4.58;76.13;98850.53;5005319;28;20228;-69
2021/03/23 08:38:34;;;;;;;9.57;8.60;;;;;;;4.56;77.20;98855.03;5004714;28;20391;-70
2021/03/23 08:41:08;;;;;;;12.07;10.70;;;;;;;4.73;75.57;98855.66;5007809;28;20309;-69
2021/03/23 08:43:41;;;;;;;9.10;8.20;;;;;;;4.54;76.32;98859.56;5004949;28;20246;-69
2021/03/23 08:46:16;;;;;;;9.43;7.63;;;;;;;4.59;74.85;98861.88;5005362;28;20228;-70
2021/03/23 08:48:47;;;;;;;9.03;8.13;;;;;;;4.46;75.43;98865.31;5005099;28;20212;-67
2021/03/23 08:51:18;;;;;;;16.47;14.23;;;;;;;4.52;75.09;98865.84;5003660;28;20656;-68
2021/03/23 08:53:54;;;;;;;8.17;7.43;;;;;;;4.44;75.06;98867.19;5006140;28;20196;-67
2021/03/23 08:56:54;;;;;;;9.40;8.27;;;;;;;4.51;75.76;98861.53;5002196;28;20678;-71
2021/03/23 08:59:48;;;;;;;12.47;11.27;;;;;;;4.76;75.08;98876.47;5002580;28;20267;-70
2021/03/23 09:02:39;;;;;;;11.33;10.03;;;;;;;4.68;74.74;98878.78;5000696;28;20711;-70
2021/03/23 09:05:55;;;;;;;9.83;8.63;;;;;;;4.63;73.55;98877.31;4996965;28;21050;-68
2021/03/23 09:09:00;;;;;;;10.70;9.60;;;;;;;4.75;72.58;98880.88;5004646;28;20326;-69
2021/03/23 09:11:57;;;;;;;12.27;10.27;;;;;;;4.72;73.54;98886.34;5005540;28;20211;-69
2021/03/23 09:14:25;;;;;;;54.60;25.70;;;;;;;4.85;72.61;98886.34;5001492;28;20321;-67
2021/03/23 09:17:16;;;;;;;112.23;46.13;;;;;;;4.86;71.38;98877.53;5003781;28;20306;-70
2021/03/23 09:19:54;;;;;;;10.47;8.97;;;;;;;4.95;70.79;98881.31;5002496;28;20216;-68
2021/03/23 09:22:36;;;;;;;10.73;9.47;;;;;;;5.03;71.12;98883.38;5007105;28;20213;-71
2021/03/23 09:25:48;;;;;;;15.07;9.20;;;;;;;5.20;70.02;98885.69;5002061;28;20607;-70
2021/03/23 09:28:50;;;;;;;8.33;7.60;;;;;;;5.10;70.15;98884.63;4999596;28;20219;-70
2021/03/23 09:31:22;;;;;;;28.30;14.10;;;;;;;4.81;71.28;98887.50;5003050;28;20220;-71
2021/03/23 09:33:51;;;;;;;48.67;20.27;;;;;;;4.94;70.30;98887.50;4998718;28;20252;-70
2021/03/23 09:36:49;;;;;;;102.70;41.03;;;;;;;5.32;68.30;98880.50;5002381;28;20232;-69
2021/03/23 09:39:37;;;;;;;8.10;7.37;;;;;;;5.33;67.35;98874.28;5002562;28;20221;-70
2021/03/23 09:42:24;;;;;;;12.27;9.27;;;;;;;5.14;68.38;98883.50;5001718;28;20205;-71
2021/03/23 09:45:34;;;;;;;115.50;45.67;;;;;;;5.49;66.86;98880.16;5001156;28;20235;-71
2021/03/23 09:48:32;;;;;;;21.00;13.70;;;;;;;5.22;67.11;98877.69;4996824;28;20306;-67
2021/03/23 09:51:03;;;;;;;74.93;37.90;;;;;;;5.07;66.71;98876.97;4995546;28;20202;-69
2021/03/23 09:53:35;;;;;;;6.37;5.70;;;;;;;5.30;65.07;98867.50;5000782;28;20215;-69
2021/03/23 09:56:08;;;;;;;16.67;11.37;;;;;;;5.07;66.80;98880.44;5001505;28;20598;-69
2021/03/23 09:58:37;;;;;;;9.53;7.90;;;;;;;5.24;65.96;98872.31;5006716;28;20708;-71
2021/03/23 10:01:25;;;;;;;7.63;6.80;;;;;;;5.45;64.42;98873.41;5003377;28;20553;-70
2021/03/23 10:03:56;;;;;;;9.57;7.37;;;;;;;5.41;64.05;98871.97;5006082;28;20227;-70
2021/03/23 10:06:26;;;;;;;49.27;27.70;;;;;;;5.30;64.77;98870.13;5004305;28;20225;-70
2021/03/23 10:08:59;;;;;;;39.97;23.33;;;;;;;5.41;64.85;98873.75;5006639;28;20212;-70
2021/03/23 10:11:28;;;;;;;19.20;13.43;;;;;;;5.62;64.75;98869.56;5008334;28;20209;-70
2021/03/23 10:13:58;;;;;;;10.33;8.57;;;;;;;5.71;64.27;98867.25;5009564;28;20220;-70
2021/03/23 10:16:32;;;;;;;10.43;8.20;;;;;;;5.52;63.98;98873.00;5007418;28;20520;-70
2021/03/23 10:19:04;;;;;;;6.80;6.20;;;;;;;5.68;63.68;98881.44;5003609;28;20201;-68
2021/03/23 10:21:33;;;;;;;14.80;10.33;;;;;;;5.49;63.20;98874.91;5003746;28;20205;-69
2021/03/23 10:24:01;;;;;;;35.27;25.03;;;;;;;5.38;62.25;98877.44;4995754;28;20752;-69
2021/03/23 10:26:34;;;;;;;28.77;20.13;;;;;;;5.59;62.37;98874.22;5000894;28;20208;-69
2021/03/23 10:29:11;;;;;;;23.50;15.93;;;;;;;5.48;62.28;98881.09;5002282;28;20754;-69
2021/03/23 10:31:41;;;;;;;23.63;14.77;;;;;;;5.50;62.58;98876.59;5001464;28;20669;-69
2021/03/23 10:34:12;;;;;;;89.83;60.80;;;;;;;5.65;62.06;98874.59;5000963;28;20632;-68
2021/03/23 10:36:45;;;;;;;57.33;44.67;;;;;;;5.79;60.90;98880.69;5007931;28;20220;-68
2021/03/23 10:39:47;;;;;;;12.13;9.77;;;;;;;5.70;60.24;98879.56;4998756;28;20471;-68
2021/03/23 10:42:29;;;;;;;7.33;6.73;;;;;;;5.58;60.39;98872.56;5001589;28;20572;-68
2021/03/23 10:45:13;;;;;;;12.77;11.63;;;;;;;5.62;59.65;98880.09;5005999;28;20231;-69
2021/03/23 10:47:44;;;;;;;6.93;6.40;;;;;;;5.78;60.03;98879.81;5004666;28;20252;-69
2021/03/23 10:50:19;;;;;;;17.40;12.27;;;;;;;5.97;60.00;98881.13;5000990;28;20205;-70
2021/03/23 10:52:46;;;;;;;9.67;8.87;;;;;;;5.94;59.26;98876.09;4999517;28;20199;-67
2021/03/23 10:55:20;;;;;;;7.00;6.40;;;;;;;5.79;60.28;98878.06;5003978;28;20229;-71
2021/03/23 10:57:47;;;;;;;7.33;6.73;;;;;;;5.90;60.30;98883.34;5000805;28;20220;-68
2021/03/23 11:00:29;;;;;;;6.43;5.93;;;;;;;6.16;59.35;98874.53;4998712;28;20720;-70
2021/03/23 11:03:11;;;;;;;6.60;6.10;;;;;;;5.99;59.71;98875.72;4994320;28;20222;-67
2021/03/23 11:05:44;;;;;;;7.07;6.47;;;;;;;6.01;59.81;98877.34;5000040;28;20252;-70
2021/03/23 11:08:13;;;;;;;6.33;5.83;;;;;;;6.17;58.51;98878.81;5004157;28;20625;-70
2021/03/23 11:10:40;;;;;;;5.70;5.20;;;;;;;6.13;58.91;98885.28;4999173;28;20312;-70
2021/03/23 11:13:08;;;;;;;6.93;6.33;;;;;;;6.12;59.07;98870.44;5004327;28;20223;-70
2021/03/23 11:15:38;;;;;;;6.60;6.10;;;;;;;6.35;58.89;98866.09;5006110;28;20924;-70
2021/03/23 11:18:11;;;;;;;6.80;6.23;;;;;;;6.17;59.46;98876.19;5001268;28;20233;-70
2021/03/23 11:20:38;;;;;;;5.50;5.00;;;;;;;6.30;58.79;98874.34;5009825;28;20598;-70
2021/03/23 11:23:31;;;;;;;6.40;5.90;;;;;;;6.14;59.12;98868.53;5000678;28;20219;-70
2021/03/23 11:25:58;;;;;;;6.83;6.23;;;;;;;6.13;59.96;98866.84;5005893;28;20212;-71
2021/03/23 11:28:25;;;;;;;7.30;5.93;;;;;;;6.13;60.23;98872.13;5003943;28;20701;-71
2021/03/23 11:30:52;;;;;;;7.67;6.87;;;;;;;6.32;57.74;98871.59;5002165;28;20201;-65
2021/03/23 11:33:19;;;;;;;6.43;5.93;;;;;;;6.27;58.33;98871.94;4998628;28;20397;-69
2021/03/23 11:35:47;;;;;;;6.83;6.23;;;;;;;6.37;58.56;98865.03;5006946;28;20228;-68
2021/03/23 11:38:16;;;;;;;6.70;5.73;;;;;;;6.29;57.96;98862.13;5003453;28;20232;-69
2021/03/23 11:40:43;;;;;;;7.37;5.70;;;;;;;5.99;59.32;98857.31;5004808;28;20205;-67
2021/03/23 11:43:16;;;;;;;7.10;6.50;;;;;;;6.15;58.54;98860.53;5006910;28;20208;-67
2021/03/23 11:45:44;;;;;;;6.50;5.90;;;;;;;6.13;59.01;98859.81;5008546;28;20232;-68
2021/03/23 11:48:13;;;;;;;6.80;6.20;;;;;;;6.12;59.17;98859.91;5005394;28;20216;-70
2021/03/23 11:50:41;;;;;;;6.07;5.57;;;;;;;5.93;59.65;98856.81;5003016;28;20227;-69
2021/03/23 11:53:08;;;;;;;7.20;6.70;;;;;;;6.25;59.61;98860.69;5006213;28;20727;-69
2021/03/23 11:55:39;;;;;;;7.50;6.83;;;;;;;6.26;59.19;98853.63;5007968;28;20220;-70
2021/03/23 11:58:07;;;;;;;6.33;5.77;;;;;;;6.17;59.30;98856.00;5007285;28;20546;-68
2021/03/23 12:00:35;;;;;;;7.77;7.00;;;;;;;6.11;60.04;98851.19;5006951;28;20308;-70
2021/03/23 12:03:06;;;;;;;7.47;6.77;;;;;;;6.39;59.72;98850.91;5001811;28;20208;-68